sensor_id;sensor_type;location;lat;lon;timestamp;temperature;humidity
913;DHT22;443;51.448;7.028;2023-08-30T00:02:26;18.70;85.00
913;DHT22;443;51.448;7.028;2023-08-30T00:04:58;18.70;85.10
913;DHT22;443;51.448;7.028;2023-08-30T00:07:25;18.60;84.40
913;DHT22;443;51.448;7.028;2023-08-30T00:09:51;18.60;84.50
913;DHT22;443;51.448;7.028;2023-08-30T00:12:19;18.60;84.90
913;DHT22;443;51.448;7.028;2023-08-30T00:14:47;18.60;84.80
913;DHT22;443;51.448;7.028;2023-08-30T00:17:14;18.60;84.70
913;DHT22;443;51.448;7.028;2023-08-30T00:19:40;18.60;84.90
913;DHT22;443;51.448;7.028;2023-08-30T00:22:07;18.60;84.70
913;DHT22;443;51.448;7.028;2023-08-30T00:24:34;18.50;84.40
913;DHT22;443;51.448;7.028;2023-08-30T00:27:02;18.50;84.40
913;DHT22;443;51.448;7.028;2023-08-30T00:29:30;18.50;84.80
913;DHT22;443;51.448;7.028;2023-08-30T00:31:57;18.50;84.40
913;DHT22;443;51.448;7.028;2023-08-30T00:34:24;18.50;84.40
913;DHT22;443;51.448;7.028;2023-08-30T00:36:50;18.50;84.50
913;DHT22;443;51.448;7.028;2023-08-30T00:39:17;18.50;84.40
913;DHT22;443;51.448;7.028;2023-08-30T00:41:44;18.50;84.60
913;DHT22;443;51.448;7.028;2023-08-30T00:44:10;18.50;84.60
913;DHT22;443;51.448;7.028;2023-08-30T00:46:38;18.50;84.60
913;DHT22;443;51.448;7.028;2023-08-30T00:49:05;18.50;84.80
913;DHT22;443;51.448;7.028;2023-08-30T00:51:33;18.50;84.70
913;DHT22;443;51.448;7.028;2023-08-30T00:54:00;18.40;84.50
913;DHT22;443;51.448;7.028;2023-08-30T00:56:27;18.40;84.70
913;DHT22;443;51.448;7.028;2023-08-30T00:58:55;18.40;84.70
913;DHT22;443;51.448;7.028;2023-08-30T01:01:22;18.40;84.60
913;DHT22;443;51.448;7.028;2023-08-30T01:03:50;18.40;84.60
913;DHT22;443;51.448;7.028;2023-08-30T01:06:17;18.40;84.50
913;DHT22;443;51.448;7.028;2023-08-30T01:08:44;18.50;85.80
913;DHT22;443;51.448;7.028;2023-08-30T01:11:15;18.60;85.40
913;DHT22;443;51.448;7.028;2023-08-30T01:13:50;18.50;84.60
913;DHT22;443;51.448;7.028;2023-08-30T01:16:20;18.50;84.90
913;DHT22;443;51.448;7.028;2023-08-30T01:18:53;18.40;84.80
913;DHT22;443;51.448;7.028;2023-08-30T01:21:27;18.40;84.40
913;DHT22;443;51.448;7.028;2023-08-30T01:23:58;18.40;84.50
913;DHT22;443;51.448;7.028;2023-08-30T01:26:33;18.40;84.50
913;DHT22;443;51.448;7.028;2023-08-30T01:29:04;18.40;84.80
913;DHT22;443;51.448;7.028;2023-08-30T01:31:32;18.40;85.00
913;DHT22;443;51.448;7.028;2023-08-30T01:34:01;18.40;84.50
913;DHT22;443;51.448;7.028;2023-08-30T01:36:29;18.40;84.20
913;DHT22;443;51.448;7.028;2023-08-30T01:38:58;18.40;85.10
913;DHT22;443;51.448;7.028;2023-08-30T01:41:25;18.30;84.40
913;DHT22;443;51.448;7.028;2023-08-30T01:43:53;18.30;84.30
913;DHT22;443;51.448;7.028;2023-08-30T01:46:22;18.30;84.80
913;DHT22;443;51.448;7.028;2023-08-30T01:48:49;18.30;84.70
913;DHT22;443;51.448;7.028;2023-08-30T01:51:17;18.30;85.00
913;DHT22;443;51.448;7.028;2023-08-30T01:53:44;18.40;85.20
913;DHT22;443;51.448;7.028;2023-08-30T01:56:12;18.40;85.30
913;DHT22;443;51.448;7.028;2023-08-30T01:58:38;18.40;84.70
913;DHT22;443;51.448;7.028;2023-08-30T02:01:05;18.30;84.80
913;DHT22;443;51.448;7.028;2023-08-30T02:03:35;18.30;84.90
913;DHT22;443;51.448;7.028;2023-08-30T02:06:06;18.30;84.60
913;DHT22;443;51.448;7.028;2023-08-30T02:08:38;18.30;84.50
913;DHT22;443;51.448;7.028;2023-08-30T02:11:13;18.30;84.40
913;DHT22;443;51.448;7.028;2023-08-30T02:13:41;18.30;84.70
913;DHT22;443;51.448;7.028;2023-08-30T02:16:09;18.30;84.10
913;DHT22;443;51.448;7.028;2023-08-30T02:18:38;18.30;84.60
913;DHT22;443;51.448;7.028;2023-08-30T02:21:05;18.30;84.50
913;DHT22;443;51.448;7.028;2023-08-30T02:23:31;18.40;84.80
913;DHT22;443;51.448;7.028;2023-08-30T02:25:58;18.30;84.50
913;DHT22;443;51.448;7.028;2023-08-30T02:28:25;18.30;84.90
913;DHT22;443;51.448;7.028;2023-08-30T02:30:53;18.30;84.20
913;DHT22;443;51.448;7.028;2023-08-30T02:33:20;18.30;84.30
913;DHT22;443;51.448;7.028;2023-08-30T02:35:48;18.30;84.30
913;DHT22;443;51.448;7.028;2023-08-30T02:38:15;18.40;84.70
913;DHT22;443;51.448;7.028;2023-08-30T02:40:42;18.40;84.00
913;DHT22;443;51.448;7.028;2023-08-30T02:43:08;18.50;85.00
913;DHT22;443;51.448;7.028;2023-08-30T02:45:35;18.30;84.00
913;DHT22;443;51.448;7.028;2023-08-30T02:48:03;18.30;84.30
913;DHT22;443;51.448;7.028;2023-08-30T02:50:30;18.30;84.60
913;DHT22;443;51.448;7.028;2023-08-30T02:52:58;18.20;84.60
913;DHT22;443;51.448;7.028;2023-08-30T02:55:24;18.20;84.80
913;DHT22;443;51.448;7.028;2023-08-30T02:57:51;18.30;84.50
913;DHT22;443;51.448;7.028;2023-08-30T03:00:18;18.20;84.70
913;DHT22;443;51.448;7.028;2023-08-30T03:02:45;18.20;84.90
913;DHT22;443;51.448;7.028;2023-08-30T03:05:11;18.20;84.80
913;DHT22;443;51.448;7.028;2023-08-30T03:07:38;18.20;84.90
913;DHT22;443;51.448;7.028;2023-08-30T03:10:07;18.10;85.30
913;DHT22;443;51.448;7.028;2023-08-30T03:12:34;18.10;85.10
913;DHT22;443;51.448;7.028;2023-08-30T03:15:00;18.20;85.00
913;DHT22;443;51.448;7.028;2023-08-30T03:17:27;18.20;85.00
913;DHT22;443;51.448;7.028;2023-08-30T03:19:54;18.20;84.70
913;DHT22;443;51.448;7.028;2023-08-30T03:22:21;18.20;84.80
913;DHT22;443;51.448;7.028;2023-08-30T03:24:47;18.20;84.80
913;DHT22;443;51.448;7.028;2023-08-30T03:27:16;18.30;86.10
913;DHT22;443;51.448;7.028;2023-08-30T03:29:44;18.30;84.40
913;DHT22;443;51.448;7.028;2023-08-30T03:32:15;18.20;84.40
913;DHT22;443;51.448;7.028;2023-08-30T03:34:44;18.20;84.40
913;DHT22;443;51.448;7.028;2023-08-30T03:37:10;18.10;84.40
913;DHT22;443;51.448;7.028;2023-08-30T03:39:37;18.10;84.40
913;DHT22;443;51.448;7.028;2023-08-30T03:42:04;18.10;84.40
913;DHT22;443;51.448;7.028;2023-08-30T03:44:32;18.10;84.50
913;DHT22;443;51.448;7.028;2023-08-30T03:46:59;18.10;84.20
913;DHT22;443;51.448;7.028;2023-08-30T03:49:26;18.10;84.50
913;DHT22;443;51.448;7.028;2023-08-30T03:51:53;18.10;84.30
913;DHT22;443;51.448;7.028;2023-08-30T03:54:19;18.10;84.20
913;DHT22;443;51.448;7.028;2023-08-30T03:56:46;18.10;84.10
913;DHT22;443;51.448;7.028;2023-08-30T03:59:13;18.10;84.00
913;DHT22;443;51.448;7.028;2023-08-30T04:01:41;18.10;83.90
913;DHT22;443;51.448;7.028;2023-08-30T04:04:07;18.10;84.00
913;DHT22;443;51.448;7.028;2023-08-30T04:06:34;18.10;84.20
913;DHT22;443;51.448;7.028;2023-08-30T04:09:01;18.10;85.60
913;DHT22;443;51.448;7.028;2023-08-30T04:11:28;18.10;84.30
913;DHT22;443;51.448;7.028;2023-08-30T04:13:54;18.00;84.20
913;DHT22;443;51.448;7.028;2023-08-30T04:16:21;18.10;84.30
913;DHT22;443;51.448;7.028;2023-08-30T04:18:49;18.00;84.10
913;DHT22;443;51.448;7.028;2023-08-30T04:21:16;18.00;84.30
913;DHT22;443;51.448;7.028;2023-08-30T04:23:42;18.00;84.00
913;DHT22;443;51.448;7.028;2023-08-30T04:26:09;18.00;84.40
913;DHT22;443;51.448;7.028;2023-08-30T04:28:36;18.10;84.50
913;DHT22;443;51.448;7.028;2023-08-30T04:31:03;18.10;83.70
913;DHT22;443;51.448;7.028;2023-08-30T04:33:29;18.00;83.80
913;DHT22;443;51.448;7.028;2023-08-30T04:35:57;18.00;83.80
913;DHT22;443;51.448;7.028;2023-08-30T04:38:26;18.00;84.20
913;DHT22;443;51.448;7.028;2023-08-30T04:40:57;18.00;84.70
913;DHT22;443;51.448;7.028;2023-08-30T04:43:24;18.00;85.10
913;DHT22;443;51.448;7.028;2023-08-30T04:45:51;17.90;84.70
913;DHT22;443;51.448;7.028;2023-08-30T04:48:18;17.90;84.80
913;DHT22;443;51.448;7.028;2023-08-30T04:50:45;18.00;85.10
913;DHT22;443;51.448;7.028;2023-08-30T04:53:13;18.00;84.60
913;DHT22;443;51.448;7.028;2023-08-30T04:55:40;18.10;84.70
913;DHT22;443;51.448;7.028;2023-08-30T04:58:06;18.00;84.70
913;DHT22;443;51.448;7.028;2023-08-30T05:00:33;18.00;84.60
913;DHT22;443;51.448;7.028;2023-08-30T05:03:00;18.20;85.30
913;DHT22;443;51.448;7.028;2023-08-30T05:05:26;18.10;84.80
913;DHT22;443;51.448;7.028;2023-08-30T05:07:53;18.10;85.60
913;DHT22;443;51.448;7.028;2023-08-30T05:10:21;18.00;84.70
913;DHT22;443;51.448;7.028;2023-08-30T05:12:48;18.00;84.60
913;DHT22;443;51.448;7.028;2023-08-30T05:15:17;18.00;85.30
913;DHT22;443;51.448;7.028;2023-08-30T05:17:44;18.00;84.80
913;DHT22;443;51.448;7.028;2023-08-30T05:20:11;18.00;84.40
913;DHT22;443;51.448;7.028;2023-08-30T05:22:37;18.00;85.30
913;DHT22;443;51.448;7.028;2023-08-30T05:25:05;18.30;86.40
913;DHT22;443;51.448;7.028;2023-08-30T05:27:33;18.30;85.10
913;DHT22;443;51.448;7.028;2023-08-30T05:29:59;18.40;86.30
913;DHT22;443;51.448;7.028;2023-08-30T05:32:26;18.30;83.50
913;DHT22;443;51.448;7.028;2023-08-30T05:34:53;18.10;83.60
913;DHT22;443;51.448;7.028;2023-08-30T05:37:20;18.00;84.00
913;DHT22;443;51.448;7.028;2023-08-30T05:39:47;18.00;84.70
913;DHT22;443;51.448;7.028;2023-08-30T05:42:13;18.00;84.30
913;DHT22;443;51.448;7.028;2023-08-30T05:44:41;18.00;84.40
913;DHT22;443;51.448;7.028;2023-08-30T05:47:08;17.90;84.40
913;DHT22;443;51.448;7.028;2023-08-30T05:49:40;18.00;84.50
913;DHT22;443;51.448;7.028;2023-08-30T05:52:06;18.00;84.60
913;DHT22;443;51.448;7.028;2023-08-30T05:54:33;18.00;84.40
913;DHT22;443;51.448;7.028;2023-08-30T05:57:00;18.10;85.70
913;DHT22;443;51.448;7.028;2023-08-30T05:59:27;18.00;84.40
913;DHT22;443;51.448;7.028;2023-08-30T06:01:55;18.00;85.00
913;DHT22;443;51.448;7.028;2023-08-30T06:04:22;18.00;85.10
913;DHT22;443;51.448;7.028;2023-08-30T06:06:49;18.10;85.30
913;DHT22;443;51.448;7.028;2023-08-30T06:09:16;18.00;84.60
913;DHT22;443;51.448;7.028;2023-08-30T06:11:43;18.00;85.00
913;DHT22;443;51.448;7.028;2023-08-30T06:14:10;18.00;85.10
913;DHT22;443;51.448;7.028;2023-08-30T06:16:37;18.00;85.70
913;DHT22;443;51.448;7.028;2023-08-30T06:19:05;18.10;85.90
913;DHT22;443;51.448;7.028;2023-08-30T06:21:31;18.00;84.60
913;DHT22;443;51.448;7.028;2023-08-30T06:23:58;18.00;85.00
913;DHT22;443;51.448;7.028;2023-08-30T06:26:25;18.00;85.00
913;DHT22;443;51.448;7.028;2023-08-30T06:28:51;17.90;85.20
913;DHT22;443;51.448;7.028;2023-08-30T06:31:18;17.90;85.00
913;DHT22;443;51.448;7.028;2023-08-30T06:33:45;17.90;85.40
913;DHT22;443;51.448;7.028;2023-08-30T06:36:15;18.00;86.20
913;DHT22;443;51.448;7.028;2023-08-30T06:38:42;18.10;86.10
913;DHT22;443;51.448;7.028;2023-08-30T06:41:09;18.10;85.80
913;DHT22;443;51.448;7.028;2023-08-30T06:43:37;18.00;85.20
913;DHT22;443;51.448;7.028;2023-08-30T06:46:03;18.10;85.20
913;DHT22;443;51.448;7.028;2023-08-30T06:48:30;18.00;84.70
913;DHT22;443;51.448;7.028;2023-08-30T06:50:57;18.00;85.20
913;DHT22;443;51.448;7.028;2023-08-30T06:53:26;18.00;85.40
913;DHT22;443;51.448;7.028;2023-08-30T06:56:00;18.20;86.70
913;DHT22;443;51.448;7.028;2023-08-30T06:58:27;18.10;84.80
913;DHT22;443;51.448;7.028;2023-08-30T07:00:54;18.20;86.40
913;DHT22;443;51.448;7.028;2023-08-30T07:03:20;18.10;85.20
913;DHT22;443;51.448;7.028;2023-08-30T07:05:47;18.20;86.20
913;DHT22;443;51.448;7.028;2023-08-30T07:08:14;18.20;85.30
913;DHT22;443;51.448;7.028;2023-08-30T07:10:42;18.10;84.40
913;DHT22;443;51.448;7.028;2023-08-30T07:13:09;18.10;85.70
913;DHT22;443;51.448;7.028;2023-08-30T07:15:37;18.20;84.80
913;DHT22;443;51.448;7.028;2023-08-30T07:18:04;18.40;86.70
913;DHT22;443;51.448;7.028;2023-08-30T07:20:31;18.40;85.50
913;DHT22;443;51.448;7.028;2023-08-30T07:22:59;18.40;86.10
913;DHT22;443;51.448;7.028;2023-08-30T07:25:25;18.30;84.70
913;DHT22;443;51.448;7.028;2023-08-30T07:27:53;18.30;85.80
913;DHT22;443;51.448;7.028;2023-08-30T07:30:20;18.50;84.10
913;DHT22;443;51.448;7.028;2023-08-30T07:32:47;18.50;83.80
913;DHT22;443;51.448;7.028;2023-08-30T07:35:14;18.60;83.50
913;DHT22;443;51.448;7.028;2023-08-30T07:37:41;18.50;83.50
913;DHT22;443;51.448;7.028;2023-08-30T07:40:09;18.50;84.30
913;DHT22;443;51.448;7.028;2023-08-30T07:42:36;18.40;84.00
913;DHT22;443;51.448;7.028;2023-08-30T07:45:05;18.40;83.90
913;DHT22;443;51.448;7.028;2023-08-30T07:47:32;18.50;84.60
913;DHT22;443;51.448;7.028;2023-08-30T07:49:58;18.60;83.30
913;DHT22;443;51.448;7.028;2023-08-30T07:52:25;18.60;83.20
913;DHT22;443;51.448;7.028;2023-08-30T07:54:52;18.60;83.80
913;DHT22;443;51.448;7.028;2023-08-30T07:57:19;18.60;83.10
913;DHT22;443;51.448;7.028;2023-08-30T07:59:45;18.60;84.10
913;DHT22;443;51.448;7.028;2023-08-30T08:02:13;18.60;84.30
913;DHT22;443;51.448;7.028;2023-08-30T08:04:40;18.60;84.70
913;DHT22;443;51.448;7.028;2023-08-30T08:07:07;18.60;83.40
913;DHT22;443;51.448;7.028;2023-08-30T08:09:33;18.70;84.20
913;DHT22;443;51.448;7.028;2023-08-30T08:12:00;18.70;84.20
913;DHT22;443;51.448;7.028;2023-08-30T08:14:27;18.70;83.40
913;DHT22;443;51.448;7.028;2023-08-30T08:16:54;18.80;83.70
913;DHT22;443;51.448;7.028;2023-08-30T08:19:22;18.80;81.80
913;DHT22;443;51.448;7.028;2023-08-30T08:21:48;18.90;83.20
913;DHT22;443;51.448;7.028;2023-08-30T08:24:15;18.80;82.90
913;DHT22;443;51.448;7.028;2023-08-30T08:26:42;18.90;83.40
913;DHT22;443;51.448;7.028;2023-08-30T08:29:09;18.90;84.10
913;DHT22;443;51.448;7.028;2023-08-30T08:31:35;18.90;83.80
913;DHT22;443;51.448;7.028;2023-08-30T08:34:07;18.90;83.50
913;DHT22;443;51.448;7.028;2023-08-30T08:36:36;19.00;82.70
913;DHT22;443;51.448;7.028;2023-08-30T08:39:03;19.00;83.90
913;DHT22;443;51.448;7.028;2023-08-30T08:41:35;18.90;82.90
913;DHT22;443;51.448;7.028;2023-08-30T08:44:05;18.90;84.20
913;DHT22;443;51.448;7.028;2023-08-30T08:46:32;18.90;81.90
913;DHT22;443;51.448;7.028;2023-08-30T08:49:02;18.90;82.90
913;DHT22;443;51.448;7.028;2023-08-30T08:51:32;19.00;83.30
913;DHT22;443;51.448;7.028;2023-08-30T08:54:03;19.00;83.30
913;DHT22;443;51.448;7.028;2023-08-30T08:56:31;19.00;82.90
913;DHT22;443;51.448;7.028;2023-08-30T08:58:59;19.00;83.00
913;DHT22;443;51.448;7.028;2023-08-30T09:01:26;19.00;83.50
913;DHT22;443;51.448;7.028;2023-08-30T09:03:53;19.00;83.20
913;DHT22;443;51.448;7.028;2023-08-30T09:06:21;19.10;83.40
913;DHT22;443;51.448;7.028;2023-08-30T09:08:48;19.00;83.10
913;DHT22;443;51.448;7.028;2023-08-30T09:11:16;19.10;83.10
913;DHT22;443;51.448;7.028;2023-08-30T09:13:43;19.10;83.10
913;DHT22;443;51.448;7.028;2023-08-30T09:16:13;19.10;82.70
913;DHT22;443;51.448;7.028;2023-08-30T09:18:40;19.10;82.60
913;DHT22;443;51.448;7.028;2023-08-30T09:21:08;19.10;82.90
913;DHT22;443;51.448;7.028;2023-08-30T09:23:35;19.10;83.20
913;DHT22;443;51.448;7.028;2023-08-30T09:26:02;19.10;83.40
913;DHT22;443;51.448;7.028;2023-08-30T09:28:30;19.00;83.60
913;DHT22;443;51.448;7.028;2023-08-30T09:30:58;19.00;83.30
913;DHT22;443;51.448;7.028;2023-08-30T09:33:30;19.10;83.60
913;DHT22;443;51.448;7.028;2023-08-30T09:35:57;19.00;83.60
913;DHT22;443;51.448;7.028;2023-08-30T09:38:24;19.00;83.10
913;DHT22;443;51.448;7.028;2023-08-30T09:40:51;19.00;83.20
913;DHT22;443;51.448;7.028;2023-08-30T09:43:18;19.10;83.50
913;DHT22;443;51.448;7.028;2023-08-30T09:45:48;19.00;83.60
913;DHT22;443;51.448;7.028;2023-08-30T09:48:15;19.00;83.70
913;DHT22;443;51.448;7.028;2023-08-30T09:50:42;19.00;83.60
913;DHT22;443;51.448;7.028;2023-08-30T09:53:15;19.00;83.70
913;DHT22;443;51.448;7.028;2023-08-30T09:55:44;19.10;83.50
913;DHT22;443;51.448;7.028;2023-08-30T09:58:11;19.10;83.20
913;DHT22;443;51.448;7.028;2023-08-30T10:00:38;19.10;83.50
913;DHT22;443;51.448;7.028;2023-08-30T10:03:07;19.00;83.90
913;DHT22;443;51.448;7.028;2023-08-30T10:05:35;19.00;84.20
913;DHT22;443;51.448;7.028;2023-08-30T10:08:03;19.00;83.90
913;DHT22;443;51.448;7.028;2023-08-30T10:10:31;19.00;84.00
913;DHT22;443;51.448;7.028;2023-08-30T10:12:59;19.00;84.30
913;DHT22;443;51.448;7.028;2023-08-30T10:15:31;19.00;84.50
913;DHT22;443;51.448;7.028;2023-08-30T10:18:00;19.00;84.50
913;DHT22;443;51.448;7.028;2023-08-30T10:20:29;19.00;84.60
913;DHT22;443;51.448;7.028;2023-08-30T10:22:57;18.90;85.40
913;DHT22;443;51.448;7.028;2023-08-30T10:25:28;18.90;84.90
913;DHT22;443;51.448;7.028;2023-08-30T10:27:56;19.00;84.90
913;DHT22;443;51.448;7.028;2023-08-30T10:30:25;19.00;84.90
913;DHT22;443;51.448;7.028;2023-08-30T10:32:52;19.00;84.90
913;DHT22;443;51.448;7.028;2023-08-30T10:35:19;19.00;85.00
913;DHT22;443;51.448;7.028;2023-08-30T10:37:55;19.00;84.80
913;DHT22;443;51.448;7.028;2023-08-30T10:40:22;18.90;84.60
913;DHT22;443;51.448;7.028;2023-08-30T10:42:59;19.00;84.90
913;DHT22;443;51.448;7.028;2023-08-30T10:45:25;18.90;84.80
913;DHT22;443;51.448;7.028;2023-08-30T10:47:55;18.90;85.00
913;DHT22;443;51.448;7.028;2023-08-30T10:50:28;18.90;85.20
913;DHT22;443;51.448;7.028;2023-08-30T10:52:57;18.90;85.30
913;DHT22;443;51.448;7.028;2023-08-30T10:55:24;18.90;85.40
913;DHT22;443;51.448;7.028;2023-08-30T10:57:59;18.90;85.60
913;DHT22;443;51.448;7.028;2023-08-30T11:00:28;18.80;85.90
913;DHT22;443;51.448;7.028;2023-08-30T11:02:55;18.80;86.10
913;DHT22;443;51.448;7.028;2023-08-30T11:05:23;18.80;86.00
913;DHT22;443;51.448;7.028;2023-08-30T11:07:50;18.80;86.10
913;DHT22;443;51.448;7.028;2023-08-30T11:10:18;18.80;86.30
913;DHT22;443;51.448;7.028;2023-08-30T11:12:46;18.80;86.50
913;DHT22;443;51.448;7.028;2023-08-30T11:15:14;18.80;86.50
913;DHT22;443;51.448;7.028;2023-08-30T11:17:41;18.80;86.50
913;DHT22;443;51.448;7.028;2023-08-30T11:20:10;18.80;86.60
913;DHT22;443;51.448;7.028;2023-08-30T11:22:37;18.70;86.60
913;DHT22;443;51.448;7.028;2023-08-30T11:25:05;18.80;86.50
913;DHT22;443;51.448;7.028;2023-08-30T11:27:33;18.70;86.80
913;DHT22;443;51.448;7.028;2023-08-30T11:30:00;18.80;86.60
913;DHT22;443;51.448;7.028;2023-08-30T11:32:27;18.80;86.40
913;DHT22;443;51.448;7.028;2023-08-30T11:34:57;18.80;86.40
913;DHT22;443;51.448;7.028;2023-08-30T11:37:27;18.80;86.60
913;DHT22;443;51.448;7.028;2023-08-30T11:39:55;18.80;86.50
913;DHT22;443;51.448;7.028;2023-08-30T11:42:22;18.70;86.60
913;DHT22;443;51.448;7.028;2023-08-30T11:44:51;18.70;86.70
913;DHT22;443;51.448;7.028;2023-08-30T11:47:18;18.70;86.60
913;DHT22;443;51.448;7.028;2023-08-30T11:49:47;18.70;86.70
913;DHT22;443;51.448;7.028;2023-08-30T11:52:14;18.70;86.70
913;DHT22;443;51.448;7.028;2023-08-30T11:54:41;18.70;86.70
913;DHT22;443;51.448;7.028;2023-08-30T11:57:09;18.70;86.90
913;DHT22;443;51.448;7.028;2023-08-30T11:59:35;18.60;86.90
913;DHT22;443;51.448;7.028;2023-08-30T12:02:04;18.60;86.80
913;DHT22;443;51.448;7.028;2023-08-30T12:04:31;18.60;86.90
913;DHT22;443;51.448;7.028;2023-08-30T12:06:58;18.60;87.00
913;DHT22;443;51.448;7.028;2023-08-30T12:09:30;18.60;87.00
913;DHT22;443;51.448;7.028;2023-08-30T12:12:05;18.60;87.00
913;DHT22;443;51.448;7.028;2023-08-30T12:14:35;18.60;87.10
913;DHT22;443;51.448;7.028;2023-08-30T12:17:03;18.60;87.30
913;DHT22;443;51.448;7.028;2023-08-30T12:19:31;18.60;87.20
913;DHT22;443;51.448;7.028;2023-08-30T12:22:03;18.60;87.30
913;DHT22;443;51.448;7.028;2023-08-30T12:24:41;18.60;87.40
913;DHT22;443;51.448;7.028;2023-08-30T12:27:08;18.60;87.30
913;DHT22;443;51.448;7.028;2023-08-30T12:29:34;18.60;87.50
913;DHT22;443;51.448;7.028;2023-08-30T12:32:01;18.60;87.50
913;DHT22;443;51.448;7.028;2023-08-30T12:34:29;18.60;87.60
913;DHT22;443;51.448;7.028;2023-08-30T12:36:56;18.50;87.80
913;DHT22;443;51.448;7.028;2023-08-30T12:39:23;18.50;87.90
913;DHT22;443;51.448;7.028;2023-08-30T12:41:50;18.50;88.00
913;DHT22;443;51.448;7.028;2023-08-30T12:44:17;18.50;88.00
913;DHT22;443;51.448;7.028;2023-08-30T12:46:43;18.50;88.10
913;DHT22;443;51.448;7.028;2023-08-30T12:49:10;18.60;87.80
913;DHT22;443;51.448;7.028;2023-08-30T12:51:38;18.60;87.60
913;DHT22;443;51.448;7.028;2023-08-30T12:54:05;18.60;87.80
913;DHT22;443;51.448;7.028;2023-08-30T12:56:32;18.60;88.10
913;DHT22;443;51.448;7.028;2023-08-30T12:58:58;18.60;88.00
913;DHT22;443;51.448;7.028;2023-08-30T13:01:25;18.50;88.10
913;DHT22;443;51.448;7.028;2023-08-30T13:03:52;18.60;87.80
913;DHT22;443;51.448;7.028;2023-08-30T13:06:19;18.70;87.60
913;DHT22;443;51.448;7.028;2023-08-30T13:08:47;18.70;87.40
913;DHT22;443;51.448;7.028;2023-08-30T13:11:14;18.70;87.70
913;DHT22;443;51.448;7.028;2023-08-30T13:13:40;18.70;87.60
913;DHT22;443;51.448;7.028;2023-08-30T13:16:07;18.60;87.40
913;DHT22;443;51.448;7.028;2023-08-30T13:18:34;18.60;88.40
913;DHT22;443;51.448;7.028;2023-08-30T13:21:01;18.60;87.40
913;DHT22;443;51.448;7.028;2023-08-30T13:23:29;18.60;87.30
913;DHT22;443;51.448;7.028;2023-08-30T13:25:57;18.60;87.50
913;DHT22;443;51.448;7.028;2023-08-30T13:28:24;18.60;87.50
913;DHT22;443;51.448;7.028;2023-08-30T13:30:51;18.60;87.50
913;DHT22;443;51.448;7.028;2023-08-30T13:33:19;18.60;87.60
913;DHT22;443;51.448;7.028;2023-08-30T13:35:49;18.60;87.60
913;DHT22;443;51.448;7.028;2023-08-30T13:38:17;18.60;87.70
913;DHT22;443;51.448;7.028;2023-08-30T13:40:43;18.50;87.70
913;DHT22;443;51.448;7.028;2023-08-30T13:43:11;18.50;88.20
913;DHT22;443;51.448;7.028;2023-08-30T13:45:38;18.50;88.10
913;DHT22;443;51.448;7.028;2023-08-30T13:48:05;18.50;88.00
913;DHT22;443;51.448;7.028;2023-08-30T13:50:32;18.50;87.90
913;DHT22;443;51.448;7.028;2023-08-30T13:52:59;18.50;87.90
913;DHT22;443;51.448;7.028;2023-08-30T13:55:25;18.50;87.80
913;DHT22;443;51.448;7.028;2023-08-30T13:57:52;18.50;87.60
913;DHT22;443;51.448;7.028;2023-08-30T14:00:21;18.50;87.70
913;DHT22;443;51.448;7.028;2023-08-30T14:02:48;18.50;87.30
913;DHT22;443;51.448;7.028;2023-08-30T14:05:14;18.30;87.40
913;DHT22;443;51.448;7.028;2023-08-30T14:07:41;18.40;87.80
913;DHT22;443;51.448;7.028;2023-08-30T14:10:08;18.40;87.40
913;DHT22;443;51.448;7.028;2023-08-30T14:12:36;18.40;87.70
913;DHT22;443;51.448;7.028;2023-08-30T14:15:04;18.30;88.20
913;DHT22;443;51.448;7.028;2023-08-30T14:17:32;18.40;88.50
913;DHT22;443;51.448;7.028;2023-08-30T14:19:59;18.40;88.00
913;DHT22;443;51.448;7.028;2023-08-30T14:22:26;18.40;88.10
913;DHT22;443;51.448;7.028;2023-08-30T14:24:53;18.50;88.10
913;DHT22;443;51.448;7.028;2023-08-30T14:27:20;18.50;88.00
913;DHT22;443;51.448;7.028;2023-08-30T14:29:46;18.50;87.90
913;DHT22;443;51.448;7.028;2023-08-30T14:32:13;18.50;87.90
913;DHT22;443;51.448;7.028;2023-08-30T14:34:41;18.50;87.90
913;DHT22;443;51.448;7.028;2023-08-30T14:37:08;18.50;87.30
913;DHT22;443;51.448;7.028;2023-08-30T14:39:34;18.40;87.50
913;DHT22;443;51.448;7.028;2023-08-30T14:42:01;18.50;87.30
913;DHT22;443;51.448;7.028;2023-08-30T14:44:28;18.40;86.70
913;DHT22;443;51.448;7.028;2023-08-30T14:46:55;18.50;87.00
913;DHT22;443;51.448;7.028;2023-08-30T14:49:21;18.40;87.40
913;DHT22;443;51.448;7.028;2023-08-30T14:51:49;18.40;86.80
913;DHT22;443;51.448;7.028;2023-08-30T14:54:16;18.40;87.00
913;DHT22;443;51.448;7.028;2023-08-30T14:56:43;18.30;87.30
913;DHT22;443;51.448;7.028;2023-08-30T14:59:10;18.30;87.00
913;DHT22;443;51.448;7.028;2023-08-30T15:01:36;18.30;87.10
913;DHT22;443;51.448;7.028;2023-08-30T15:04:04;18.10;88.00
913;DHT22;443;51.448;7.028;2023-08-30T15:06:31;18.20;88.50
913;DHT22;443;51.448;7.028;2023-08-30T15:08:59;18.30;88.40
913;DHT22;443;51.448;7.028;2023-08-30T15:11:28;18.30;87.70
913;DHT22;443;51.448;7.028;2023-08-30T15:13:54;18.20;88.20
913;DHT22;443;51.448;7.028;2023-08-30T15:16:21;18.10;88.60
913;DHT22;443;51.448;7.028;2023-08-30T15:18:49;18.20;88.70
913;DHT22;443;51.448;7.028;2023-08-30T15:21:15;18.20;88.60
913;DHT22;443;51.448;7.028;2023-08-30T15:23:42;18.20;88.70
913;DHT22;443;51.448;7.028;2023-08-30T15:26:10;18.30;88.50
913;DHT22;443;51.448;7.028;2023-08-30T15:28:41;18.20;88.40
913;DHT22;443;51.448;7.028;2023-08-30T15:31:08;18.30;88.40
913;DHT22;443;51.448;7.028;2023-08-30T15:33:36;18.20;88.90
913;DHT22;443;51.448;7.028;2023-08-30T15:36:04;18.20;88.80
913;DHT22;443;51.448;7.028;2023-08-30T15:38:31;18.10;89.30
913;DHT22;443;51.448;7.028;2023-08-30T15:40:59;18.10;89.40
913;DHT22;443;51.448;7.028;2023-08-30T15:43:27;18.30;89.30
913;DHT22;443;51.448;7.028;2023-08-30T15:45:54;18.30;89.00
913;DHT22;443;51.448;7.028;2023-08-30T15:48:20;18.50;88.80
913;DHT22;443;51.448;7.028;2023-08-30T15:50:48;18.60;88.30
913;DHT22;443;51.448;7.028;2023-08-30T15:53:14;18.80;88.10
913;DHT22;443;51.448;7.028;2023-08-30T15:55:41;19.10;87.50
913;DHT22;443;51.448;7.028;2023-08-30T15:58:08;19.30;86.30
913;DHT22;443;51.448;7.028;2023-08-30T16:00:36;19.60;85.10
913;DHT22;443;51.448;7.028;2023-08-30T16:03:06;19.70;84.70
913;DHT22;443;51.448;7.028;2023-08-30T16:05:32;19.70;84.10
913;DHT22;443;51.448;7.028;2023-08-30T16:08:00;19.60;84.20
913;DHT22;443;51.448;7.028;2023-08-30T16:10:27;19.60;84.50
913;DHT22;443;51.448;7.028;2023-08-30T16:12:54;19.40;84.60
913;DHT22;443;51.448;7.028;2023-08-30T16:15:21;19.30;85.10
913;DHT22;443;51.448;7.028;2023-08-30T16:17:50;19.30;85.40
913;DHT22;443;51.448;7.028;2023-08-30T16:20:17;19.20;85.40
913;DHT22;443;51.448;7.028;2023-08-30T16:22:43;19.30;85.40
913;DHT22;443;51.448;7.028;2023-08-30T16:25:10;19.20;85.40
913;DHT22;443;51.448;7.028;2023-08-30T16:27:37;19.20;85.50
913;DHT22;443;51.448;7.028;2023-08-30T16:30:05;19.20;85.60
913;DHT22;443;51.448;7.028;2023-08-30T16:32:32;19.20;85.60
913;DHT22;443;51.448;7.028;2023-08-30T16:35:00;19.10;85.80
913;DHT22;443;51.448;7.028;2023-08-30T16:37:26;19.10;85.80